sensor_id;sensor_type;location;lat;lon;timestamp;temperature;humidity
44707;DHT22;30433;45.596;8.408;2022-10-31T00:11:43;13.00;99.90
44707;DHT22;30433;45.596;8.408;2022-10-31T00:17:45;12.80;99.90
44707;DHT22;30433;45.596;8.408;2022-10-31T00:23:47;12.60;99.90
44707;DHT22;30433;45.596;8.408;2022-10-31T00:29:51;12.70;99.90
44707;DHT22;30433;45.596;8.408;2022-10-31T00:42:49;12.00;99.90
44707;DHT22;30433;45.596;8.408;2022-10-31T00:48:53;12.70;99.90
44707;DHT22;30433;45.596;8.408;2022-10-31T00:54:55;12.70;99.90
44707;DHT22;30433;45.596;8.408;2022-10-31T01:00:57;12.80;99.90
44707;DHT22;30433;45.596;8.408;2022-10-31T01:07:00;12.90;99.90
44707;DHT22;30433;45.596;8.408;2022-10-31T01:13:02;13.00;99.90
44707;DHT22;30433;45.596;8.408;2022-10-31T01:19:04;13.20;99.90
44707;DHT22;30433;45.596;8.408;2022-10-31T01:25:09;13.10;99.90
44707;DHT22;30433;45.596;8.408;2022-10-31T01:31:11;13.00;99.90
44707;DHT22;30433;45.596;8.408;2022-10-31T01:37:13;13.10;99.90
44707;DHT22;30433;45.596;8.408;2022-10-31T01:43:16;13.20;99.90
44707;DHT22;30433;45.596;8.408;2022-10-31T01:49:23;13.20;99.90
44707;DHT22;30433;45.596;8.408;2022-10-31T01:55:29;13.30;99.90
44707;DHT22;30433;45.596;8.408;2022-10-31T02:08:31;13.20;99.90
44707;DHT22;30433;45.596;8.408;2022-10-31T02:14:35;13.10;99.90
44707;DHT22;30433;45.596;8.408;2022-10-31T02:20:45;13.00;99.90
44707;DHT22;30433;45.596;8.408;2022-10-31T02:26:59;12.60;99.90
44707;DHT22;30433;45.596;8.408;2022-10-31T02:33:18;12.90;99.90
44707;DHT22;30433;45.596;8.408;2022-10-31T02:39:25;12.80;99.90
44707;DHT22;30433;45.596;8.408;2022-10-31T02:45:30;12.90;99.90
44707;DHT22;30433;45.596;8.408;2022-10-31T02:51:36;12.90;99.90
44707;DHT22;30433;45.596;8.408;2022-10-31T02:57:40;13.00;99.90
44707;DHT22;30433;45.596;8.408;2022-10-31T03:04:02;12.90;99.90
44707;DHT22;30433;45.596;8.408;2022-10-31T03:10:17;12.80;99.90
44707;DHT22;30433;45.596;8.408;2022-10-31T03:16:27;12.90;99.90
44707;DHT22;30433;45.596;8.408;2022-10-31T03:22:32;12.90;99.90
44707;DHT22;30433;45.596;8.408;2022-10-31T03:28:38;12.80;99.90
44707;DHT22;30433;45.596;8.408;2022-10-31T03:34:44;12.40;99.90
44707;DHT22;30433;45.596;8.408;2022-10-31T03:40:48;12.20;99.90
44707;DHT22;30433;45.596;8.408;2022-10-31T03:46:53;12.10;99.90
44707;DHT22;30433;45.596;8.408;2022-10-31T03:52:59;12.40;99.90
44707;DHT22;30433;45.596;8.408;2022-10-31T03:59:07;12.50;99.90
44707;DHT22;30433;45.596;8.408;2022-10-31T04:12:09;12.70;99.90
44707;DHT22;30433;45.596;8.408;2022-10-31T04:18:15;12.70;99.90
44707;DHT22;30433;45.596;8.408;2022-10-31T04:24:17;12.60;99.90
44707;DHT22;30433;45.596;8.408;2022-10-31T04:30:21;12.70;99.90
44707;DHT22;30433;45.596;8.408;2022-10-31T04:36:23;12.70;99.90
44707;DHT22;30433;45.596;8.408;2022-10-31T04:42:25;12.50;99.90
44707;DHT22;30433;45.596;8.408;2022-10-31T04:48:28;12.50;99.90
44707;DHT22;30433;45.596;8.408;2022-10-31T04:54:30;12.60;99.90
44707;DHT22;30433;45.596;8.408;2022-10-31T05:00:32;12.50;99.90
44707;DHT22;30433;45.596;8.408;2022-10-31T05:13:33;12.20;99.90
44707;DHT22;30433;45.596;8.408;2022-10-31T05:19:35;12.20;99.90
44707;DHT22;30433;45.596;8.408;2022-10-31T05:39:33;11.20;99.90
44707;DHT22;30433;45.596;8.408;2022-10-31T05:45:35;11.50;99.90
44707;DHT22;30433;45.596;8.408;2022-10-31T05:51:38;11.90;99.90
44707;DHT22;30433;45.596;8.408;2022-10-31T05:57:41;11.10;99.90
44707;DHT22;30433;45.596;8.408;2022-10-31T06:03:43;10.90;99.90
44707;DHT22;30433;45.596;8.408;2022-10-31T06:09:45;11.60;99.90
44707;DHT22;30433;45.596;8.408;2022-10-31T06:15:48;11.40;99.90
44707;DHT22;30433;45.596;8.408;2022-10-31T06:21:50;10.80;99.90
44707;DHT22;30433;45.596;8.408;2022-10-31T06:27:52;11.70;99.90
44707;DHT22;30433;45.596;8.408;2022-10-31T06:33:56;11.80;99.90
44707;DHT22;30433;45.596;8.408;2022-10-31T06:39:59;11.90;99.90
44707;DHT22;30433;45.596;8.408;2022-10-31T06:46:02;12.00;99.90
44707;DHT22;30433;45.596;8.408;2022-10-31T06:52:06;12.20;99.90
44707;DHT22;30433;45.596;8.408;2022-10-31T06:58:09;12.50;99.90
44707;DHT22;30433;45.596;8.408;2022-10-31T07:25:05;13.00;99.90
44707;DHT22;30433;45.596;8.408;2022-10-31T07:31:10;13.10;99.90
44707;DHT22;30433;45.596;8.408;2022-10-31T07:37:12;13.20;99.90
44707;DHT22;30433;45.596;8.408;2022-10-31T07:43:16;13.40;99.90
44707;DHT22;30433;45.596;8.408;2022-10-31T07:49:17;13.90;99.90
44707;DHT22;30433;45.596;8.408;2022-10-31T07:55:19;14.10;99.90
44707;DHT22;30433;45.596;8.408;2022-10-31T08:08:20;14.60;99.90
44707;DHT22;30433;45.596;8.408;2022-10-31T08:14:22;14.90;99.90
44707;DHT22;30433;45.596;8.408;2022-10-31T08:20:24;15.00;99.90
44707;DHT22;30433;45.596;8.408;2022-10-31T08:26:27;15.00;99.90
44707;DHT22;30433;45.596;8.408;2022-10-31T08:39:26;15.10;99.90
44707;DHT22;30433;45.596;8.408;2022-10-31T08:45:30;15.30;99.90
44707;DHT22;30433;45.596;8.408;2022-10-31T08:51:33;15.50;99.90
44707;DHT22;30433;45.596;8.408;2022-10-31T08:57:35;15.80;99.90
44707;DHT22;30433;45.596;8.408;2022-10-31T09:03:38;16.00;99.90
44707;DHT22;30433;45.596;8.408;2022-10-31T09:09:40;16.00;99.90
44707;DHT22;30433;45.596;8.408;2022-10-31T09:15:43;16.20;99.90
44707;DHT22;30433;45.596;8.408;2022-10-31T09:21:47;16.40;99.90
44707;DHT22;30433;45.596;8.408;2022-10-31T09:27:49;16.90;99.90
44707;DHT22;30433;45.596;8.408;2022-10-31T09:33:53;17.40;99.90
44707;DHT22;30433;45.596;8.408;2022-10-31T09:39:56;17.70;99.90
44707;DHT22;30433;45.596;8.408;2022-10-31T09:46:04;17.30;99.90
44707;DHT22;30433;45.596;8.408;2022-10-31T09:52:11;18.20;99.80
44707;DHT22;30433;45.596;8.408;2022-10-31T09:58:20;18.30;99.70
44707;DHT22;30433;45.596;8.408;2022-10-31T10:04:38;18.50;99.30
44707;DHT22;30433;45.596;8.408;2022-10-31T10:10:48;18.40;99.50
44707;DHT22;30433;45.596;8.408;2022-10-31T10:17:01;18.50;99.00
44707;DHT22;30433;45.596;8.408;2022-10-31T10:23:35;18.70;97.90
44707;DHT22;30433;45.596;8.408;2022-10-31T10:29:42;18.80;99.20
44707;DHT22;30433;45.596;8.408;2022-10-31T10:35:50;18.70;99.80
44707;DHT22;30433;45.596;8.408;2022-10-31T10:41:55;18.80;99.90
44707;DHT22;30433;45.596;8.408;2022-10-31T10:48:22;19.20;98.90
44707;DHT22;30433;45.596;8.408;2022-10-31T10:54:46;19.40;98.50
44707;DHT22;30433;45.596;8.408;2022-10-31T11:00:50;19.10;99.50
44707;DHT22;30433;45.596;8.408;2022-10-31T11:07:03;19.10;99.90
44707;DHT22;30433;45.596;8.408;2022-10-31T11:13:21;19.30;99.90
44707;DHT22;30433;45.596;8.408;2022-10-31T11:19:25;19.40;99.90
44707;DHT22;30433;45.596;8.408;2022-10-31T11:25:28;19.60;99.90
44707;DHT22;30433;45.596;8.408;2022-10-31T11:31:32;19.40;99.90
44707;DHT22;30433;45.596;8.408;2022-10-31T11:37:41;19.70;99.90
44707;DHT22;30433;45.596;8.408;2022-10-31T11:43:48;19.90;99.60
44707;DHT22;30433;45.596;8.408;2022-10-31T11:49:52;19.70;99.90
44707;DHT22;30433;45.596;8.408;2022-10-31T11:56:05;20.10;99.90
44707;DHT22;30433;45.596;8.408;2022-10-31T12:02:17;20.10;99.90
44707;DHT22;30433;45.596;8.408;2022-10-31T12:08:21;20.00;99.90
44707;DHT22;30433;45.596;8.408;2022-10-31T12:14:30;20.20;99.90
44707;DHT22;30433;45.596;8.408;2022-10-31T12:20:41;20.50;98.70
44707;DHT22;30433;45.596;8.408;2022-10-31T12:26:55;20.60;99.10
44707;DHT22;30433;45.596;8.408;2022-10-31T12:33:21;20.70;98.60
44707;DHT22;30433;45.596;8.408;2022-10-31T12:39:35;20.70;98.90
44707;DHT22;30433;45.596;8.408;2022-10-31T12:45:49;21.10;99.60
44707;DHT22;30433;45.596;8.408;2022-10-31T12:52:02;20.90;98.40
44707;DHT22;30433;45.596;8.408;2022-10-31T12:58:12;21.30;98.80
44707;DHT22;30433;45.596;8.408;2022-10-31T13:04:21;21.30;98.80
44707;DHT22;30433;45.596;8.408;2022-10-31T13:10:30;21.20;98.60
44707;DHT22;30433;45.596;8.408;2022-10-31T13:16:36;21.40;99.30
44707;DHT22;30433;45.596;8.408;2022-10-31T13:22:44;21.20;98.50
44707;DHT22;30433;45.596;8.408;2022-10-31T13:28:50;21.30;98.50
44707;DHT22;30433;45.596;8.408;2022-10-31T13:34:56;21.40;98.00
44707;DHT22;30433;45.596;8.408;2022-10-31T13:41:04;21.10;98.40
44707;DHT22;30433;45.596;8.408;2022-10-31T13:47:24;20.80;99.10
44707;DHT22;30433;45.596;8.408;2022-10-31T13:53:37;20.80;99.60
44707;DHT22;30433;45.596;8.408;2022-10-31T13:59:47;20.80;99.40
44707;DHT22;30433;45.596;8.408;2022-10-31T14:05:52;20.90;98.30
44707;DHT22;30433;45.596;8.408;2022-10-31T14:11:56;21.10;97.90
44707;DHT22;30433;45.596;8.408;2022-10-31T14:18:02;21.00;99.10
44707;DHT22;30433;45.596;8.408;2022-10-31T14:24:14;21.20;97.70
44707;DHT22;30433;45.596;8.408;2022-10-31T14:30:19;20.90;97.80
44707;DHT22;30433;45.596;8.408;2022-10-31T14:36:31;20.90;97.30
44707;DHT22;30433;45.596;8.408;2022-10-31T14:42:58;20.80;97.20
44707;DHT22;30433;45.596;8.408;2022-10-31T14:49:17;20.80;96.80
44707;DHT22;30433;45.596;8.408;2022-10-31T14:55:23;20.80;97.60
44707;DHT22;30433;45.596;8.408;2022-10-31T15:01:28;20.50;97.80
44707;DHT22;30433;45.596;8.408;2022-10-31T15:07:31;20.10;98.90
44707;DHT22;30433;45.596;8.408;2022-10-31T15:13:42;19.90;99.50
44707;DHT22;30433;45.596;8.408;2022-10-31T15:19:44;19.70;99.60
44707;DHT22;30433;45.596;8.408;2022-10-31T15:25:47;19.60;99.90
44707;DHT22;30433;45.596;8.408;2022-10-31T15:31:51;19.40;99.90
44707;DHT22;30433;45.596;8.408;2022-10-31T15:37:53;19.10;99.90
44707;DHT22;30433;45.596;8.408;2022-10-31T15:43:59;19.00;99.90
44707;DHT22;30433;45.596;8.408;2022-10-31T15:50:05;18.70;99.90
44707;DHT22;30433;45.596;8.408;2022-10-31T15:56:21;18.10;99.90
44707;DHT22;30433;45.596;8.408;2022-10-31T16:09:23;18.00;99.90
44707;DHT22;30433;45.596;8.408;2022-10-31T16:15:25;17.80;99.90
44707;DHT22;30433;45.596;8.408;2022-10-31T16:21:30;17.50;99.90
44707;DHT22;30433;45.596;8.408;2022-10-31T16:27:34;17.40;99.90
44707;DHT22;30433;45.596;8.408;2022-10-31T16:33:37;17.10;99.90
44707;DHT22;30433;45.596;8.408;2022-10-31T16:46:39;16.10;99.90
44707;DHT22;30433;45.596;8.408;2022-10-31T16:52:42;15.80;99.90
44707;DHT22;30433;45.596;8.408;2022-10-31T17:12:29;16.10;99.90
44707;DHT22;30433;45.596;8.408;2022-10-31T17:39:38;14.50;99.90
44707;DHT22;30433;45.596;8.408;2022-10-31T17:45:40;14.10;99.90
44707;DHT22;30433;45.596;8.408;2022-10-31T17:51:42;15.10;99.90
44707;DHT22;30433;45.596;8.408;2022-10-31T17:57:46;14.80;99.90
44707;DHT22;30433;45.596;8.408;2022-10-31T18:03:48;15.00;99.90
44707;DHT22;30433;45.596;8.408;2022-10-31T18:16:49;15.20;99.90
44707;DHT22;30433;45.596;8.408;2022-10-31T18:22:51;14.40;99.90
44707;DHT22;30433;45.596;8.408;2022-10-31T18:36:05;14.80;99.90
44707;DHT22;30433;45.596;8.408;2022-10-31T18:42:07;14.90;99.90
44707;DHT22;30433;45.596;8.408;2022-10-31T18:55:08;14.60;99.90
44707;DHT22;30433;45.596;8.408;2022-10-31T19:15:06;14.60;99.90
44707;DHT22;30433;45.596;8.408;2022-10-31T19:21:10;14.50;99.90
44707;DHT22;30433;45.596;8.408;2022-10-31T19:34:26;14.50;99.90
44707;DHT22;30433;45.596;8.408;2022-10-31T19:40:28;14.30;99.90
44707;DHT22;30433;45.596;8.408;2022-10-31T19:46:48;14.40;99.90
44707;DHT22;30433;45.596;8.408;2022-10-31T19:52:52;14.30;99.90
44707;DHT22;30433;45.596;8.408;2022-10-31T20:05:50;14.10;99.90
44707;DHT22;30433;45.596;8.408;2022-10-31T20:11:54;14.00;99.90
44707;DHT22;30433;45.596;8.408;2022-10-31T20:24:53;13.90;99.90
44707;DHT22;30433;45.596;8.408;2022-10-31T20:45:51;14.20;99.90
44707;DHT22;30433;45.596;8.408;2022-10-31T20:51:53;14.30;99.90
44707;DHT22;30433;45.596;8.408;2022-10-31T21:18:50;14.10;99.90
44707;DHT22;30433;45.596;8.408;2022-10-31T21:24:52;14.10;99.90
44707;DHT22;30433;45.596;8.408;2022-10-31T21:37:53;13.90;99.90
44707;DHT22;30433;45.596;8.408;2022-10-31T21:43:58;13.40;99.90
44707;DHT22;30433;45.596;8.408;2022-10-31T21:57:00;13.30;99.90
44707;DHT22;30433;45.596;8.408;2022-10-31T22:03:02;13.50;99.90
44707;DHT22;30433;45.596;8.408;2022-10-31T22:09:06;13.50;99.90
44707;DHT22;30433;45.596;8.408;2022-10-31T22:15:10;13.00;99.90
44707;DHT22;30433;45.596;8.408;2022-10-31T22:21:13;13.10;99.90
44707;DHT22;30433;45.596;8.408;2022-10-31T22:34:15;13.20;99.90
44707;DHT22;30433;45.596;8.408;2022-10-31T22:40:18;13.40;99.90
44707;DHT22;30433;45.596;8.408;2022-10-31T22:46:21;13.30;99.90
44707;DHT22;30433;45.596;8.408;2022-10-31T22:52:25;13.10;99.90
44707;DHT22;30433;45.596;8.408;2022-10-31T23:05:26;13.20;99.90
44707;DHT22;30433;45.596;8.408;2022-10-31T23:11:31;13.20;99.90
44707;DHT22;30433;45.596;8.408;2022-10-31T23:17:34;13.40;99.90
44707;DHT22;30433;45.596;8.408;2022-10-31T23:23:36;13.10;99.90
44707;DHT22;30433;45.596;8.408;2022-10-31T23:43:34;13.30;99.90
44707;DHT22;30433;45.596;8.408;2022-10-31T23:49:42;13.00;99.90
